Time;durP1;ratioP1;P1;durP2;ratioP2;P2;SDS_P1;SDS_P2;PMS_P1;PMS_P2;Temp;Humidity;BMP_temperature;BMP_pressure;BME280_temperature;BME280_humidity;BME280_pressure;Samples;Min_cycle;Max_cycle;Signal;HPM_P1;HPM_P2
2023/09/05 00:00:10;;;;;;;3.33;3.13;;;18.20;99.90;;;18.52;75.14;95115.97;5041780;28;20842;-60
2023/09/05 00:02:38;;;;;;;2.73;2.60;;;18.20;99.90;;;18.48;75.17;95116.50;5042426;28;20449;-62
2023/09/05 00:05:07;;;;;;;2.57;2.37;;;18.10;99.90;;;18.45;74.97;95121.19;5042375;28;20551;-60
2023/09/05 00:07:35;;;;;;;2.23;2.13;;;18.10;99.90;;;18.42;75.38;95112.75;5042074;28;20452;-60
2023/09/05 00:10:03;;;;;;;2.43;2.23;;;18.10;99.90;;;18.37;75.53;95112.47;5043756;28;20550;-59
2023/09/05 00:12:30;;;;;;;2.63;2.53;;;18.10;99.90;;;18.34;75.72;95115.47;5042406;28;20461;-59
2023/09/05 00:14:58;;;;;;;4.17;2.23;;;18.00;99.90;;;18.31;75.20;95103.38;5039507;28;21042;-60
2023/09/05 00:17:26;;;;;;;2.93;2.57;;;18.00;99.90;;;18.28;75.26;95109.88;5046506;28;20456;-64
2023/09/05 00:19:55;;;;;;;2.73;2.37;;;18.00;99.90;;;18.27;75.47;95100.22;5040217;28;20475;-60
2023/09/05 00:22:23;;;;;;;1.87;1.77;;;17.90;99.90;;;18.24;76.04;95087.28;5046400;28;20456;-64
2023/09/05 00:24:50;;;;;;;2.47;2.37;;;17.90;99.90;;;18.23;76.03;95090.97;5042271;28;20555;-58
2023/09/05 00:27:17;;;;;;;6.67;2.43;;;17.90;99.90;;;18.22;75.90;95083.16;5039636;28;20562;-64
2023/09/05 00:29:45;;;;;;;2.53;2.43;;;17.90;99.90;;;18.21;76.39;95082.31;5041329;28;20492;-64
2023/09/05 00:32:12;;;;;;;2.23;2.13;;;17.90;99.90;;;18.22;76.48;95096.47;5041912;28;20559;-65
2023/09/05 00:34:41;;;;;;;2.40;2.30;;;17.90;99.90;;;18.23;76.52;95090.97;5045512;28;20485;-63
2023/09/05 00:37:09;;;;;;;2.50;2.30;;;17.90;99.90;;;18.24;76.52;95087.28;5041330;28;20447;-59
2023/09/05 00:39:40;;;;;;;3.00;2.80;;;17.90;99.90;;;18.27;76.78;95089.59;5043480;28;20472;-60
2023/09/05 00:42:10;;;;;;;2.97;2.73;;;17.90;99.90;;;18.28;76.32;95077.94;5040645;28;20444;-59
2023/09/05 00:44:38;;;;;;;2.53;2.43;;;17.90;99.90;;;18.31;76.42;95070.56;5042837;28;20468;-62
2023/09/05 00:47:05;;;;;;;2.60;2.40;;;18.00;99.90;;;18.31;75.90;95075.91;5044837;28;20459;-59
2023/09/05 00:49:39;;;;;;;2.53;2.30;;;17.90;99.90;;;18.31;75.86;95073.25;5039525;28;22094;-63
2023/09/05 00:52:08;;;;;;;2.67;2.57;;;18.00;99.90;;;18.31;76.11;95070.56;5042954;28;20432;-60
2023/09/05 00:54:40;;;;;;;2.13;2.03;;;18.00;99.90;;;18.31;76.32;95076.75;5041389;28;20480;-60
2023/09/05 00:57:08;;;;;;;2.40;2.30;;;18.00;99.90;;;18.32;75.91;95077.56;5042686;28;20529;-59
2023/09/05 00:59:35;;;;;;;2.67;2.57;;;18.00;99.90;;;18.33;76.06;95069.41;5037868;28;20492;-64
2023/09/05 01:02:02;;;;;;;2.30;2.20;;;18.00;99.90;;;18.32;76.69;95073.06;5044710;28;20470;-64
2023/09/05 01:04:29;;;;;;;2.80;2.70;;;18.00;99.90;;;18.32;75.82;95072.25;5039776;28;20561;-63
2023/09/05 01:07:01;;;;;;;2.33;2.23;;;18.00;99.90;;;18.32;75.34;95078.38;5046241;28;20479;-59
2023/09/05 01:09:37;;;;;;;2.50;2.40;;;18.00;99.90;;;18.32;75.30;95085.56;5039409;28;20492;-64
2023/09/05 01:12:05;;;;;;;2.73;2.63;;;18.00;99.90;;;18.28;75.38;95079.78;5042203;28;20444;-64
2023/09/05 01:14:33;;;;;;;2.70;2.50;;;18.00;99.90;;;18.27;75.50;95086.91;5038584;28;20483;-60
2023/09/05 01:17:02;;;;;;;2.77;2.60;;;18.00;99.90;;;18.26;75.53;95090.59;5044856;28;20448;-58
2023/09/05 01:19:30;;;;;;;2.73;2.63;;;17.90;99.90;;;18.24;75.66;95092.59;5042069;28;20877;-63
2023/09/05 01:22:08;;;;;;;4.87;3.13;;;17.90;99.90;;;18.22;75.57;95093.81;5042237;28;20514;-64
2023/09/05 01:24:39;;;;;;;2.60;2.40;;;17.90;99.90;;;18.20;75.88;95096.66;5043068;28;21035;-63
2023/09/05 01:27:06;;;;;;;3.20;3.03;;;17.90;99.90;;;18.22;75.66;95104.47;5040003;28;20515;-63
2023/09/05 01:29:36;;;;;;;7.90;3.97;;;17.90;99.90;;;18.20;75.59;95104.66;5042399;28;20497;-58
2023/09/05 01:32:04;;;;;;;4.03;3.70;;;17.90;99.90;;;18.19;76.00;95105.66;5043059;28;20464;-59
2023/09/05 01:34:31;;;;;;;4.10;3.90;;;17.90;99.90;;;18.20;75.58;95106.47;5039070;28;20507;-58
2023/09/05 01:36:58;;;;;;;3.70;3.40;;;17.90;99.90;;;18.20;75.70;95102.00;5043296;28;20475;-58
2023/09/05 01:39:26;;;;;;;3.70;3.33;;;17.90;99.90;;;18.23;76.27;95098.97;5041638;28;20488;-63
2023/09/05 01:41:54;;;;;;;2.87;2.67;;;17.90;99.90;;;18.26;76.31;95087.09;5043643;28;20464;-65
2023/09/05 01:44:22;;;;;;;2.90;2.80;;;17.90;99.90;;;18.28;76.13;95077.94;5044181;28;20849;-60
2023/09/05 01:46:49;;;;;;;2.90;2.80;;;17.90;99.90;;;18.31;75.87;95070.56;5044658;28;20567;-63
2023/09/05 01:49:16;;;;;;;3.07;2.87;;;18.00;99.90;;;18.33;76.11;95076.56;5036924;28;20493;-59
2023/09/05 01:51:43;;;;;;;3.30;3.20;;;18.00;99.90;;;18.33;75.61;95073.91;5042784;28;20479;-63
2023/09/05 01:54:11;;;;;;;2.97;2.77;;;18.00;99.90;;;18.33;76.02;95077.38;5034891;28;20508;-58
2023/09/05 01:56:38;;;;;;;3.07;2.83;;;18.00;99.90;;;18.34;75.20;95075.53;5046481;28;20994;-59
2023/09/05 01:59:07;;;;;;;4.13;2.90;;;18.00;99.90;;;18.33;75.32;95071.25;5034531;28;20575;-60
2023/09/05 02:01:34;;;;;;;3.83;2.73;;;18.00;99.90;;;18.32;75.56;95073.06;5043544;28;20460;-59
2023/09/05 02:04:02;;;;;;;3.47;3.27;;;18.00;99.90;;;18.33;75.69;95074.72;5038951;28;20522;-65
2023/09/05 02:06:29;;;;;;;3.77;3.50;;;18.00;99.90;;;18.34;75.39;95079.06;5039939;28;20974;-64
2023/09/05 02:08:56;;;;;;;4.03;3.80;;;18.00;99.90;;;18.35;75.45;95087.84;5042195;28;20996;-64
2023/09/05 02:11:23;;;;;;;6.77;4.20;;;18.00;99.90;;;18.35;75.44;95095.84;5041557;28;20465;-59
2023/09/05 02:13:51;;;;;;;4.83;4.43;;;18.00;99.90;;;18.33;75.05;95093.38;5040465;28;20563;-59
2023/09/05 02:16:19;;;;;;;5.07;4.10;;;18.00;99.90;;;18.33;75.09;95096.03;5041068;28;20519;-59
2023/09/05 02:18:49;;;;;;;4.87;4.47;;;18.00;99.90;;;18.33;75.05;95095.22;5039747;28;20545;-60
2023/09/05 02:21:16;;;;;;;7.87;4.70;;;18.00;99.90;;;18.32;75.77;95098.88;5045929;28;20451;-61
2023/09/05 02:23:44;;;;;;;5.20;4.70;;;17.90;99.90;;;18.30;75.63;95117.69;5040191;28;20481;-59
2023/09/05 02:26:12;;;;;;;5.37;4.60;;;18.00;99.90;;;18.29;75.56;95105.38;5038388;28;20534;-65
2023/09/05 02:28:40;;;;;;;5.30;4.87;;;18.00;99.90;;;18.28;75.85;95101.91;5038662;28;20497;-61
2023/09/05 02:31:07;;;;;;;5.77;5.27;;;17.90;99.90;;;18.29;75.37;95108.03;5040304;28;20460;-59
2023/09/05 02:33:36;;;;;;;5.13;4.70;;;17.90;99.90;;;18.30;75.33;95106.22;5043379;28;20472;-59
2023/09/05 02:36:15;;;;;;;6.20;5.33;;;17.90;99.90;;;18.30;75.49;95112.38;5047289;28;20456;-59
2023/09/05 02:38:43;;;;;;;5.40;5.00;;;18.00;99.90;;;18.30;75.67;95109.69;5039795;28;20480;-64
2023/09/05 02:41:13;;;;;;;6.20;5.40;;;18.00;99.90;;;18.31;75.58;95102.53;5036857;28;20456;-59
2023/09/05 02:43:41;;;;;;;5.87;5.40;;;18.00;99.90;;;18.30;74.72;95098.22;5037041;28;21044;-65
2023/09/05 02:46:08;;;;;;;6.20;5.60;;;18.00;99.90;;;18.27;74.35;95099.41;5033924;28;20456;-60
2023/09/05 02:48:39;;;;;;;7.20;6.50;;;17.90;99.90;;;18.21;74.37;95098.28;5037050;28;21104;-65
2023/09/05 02:51:07;;;;;;;6.63;6.13;;;17.90;99.90;;;18.20;75.00;95096.66;5039539;28;20448;-66
2023/09/05 02:53:34;;;;;;;7.90;6.47;;;17.90;99.90;;;18.20;75.07;95088.69;5045929;28;20491;-65
2023/09/05 02:56:02;;;;;;;6.53;5.97;;;17.90;99.90;;;18.20;75.26;95091.34;5043060;28;20459;-65
2023/09/05 02:58:30;;;;;;;7.40;6.80;;;17.90;99.90;;;18.20;74.63;95091.34;5044347;28;21015;-59
2023/09/05 03:01:01;;;;;;;8.47;6.33;;;17.90;99.90;;;18.22;75.21;95094.63;5038939;28;20464;-59
2023/09/05 03:03:28;;;;;;;8.70;6.80;;;17.90;99.90;;;18.22;74.59;95094.63;5042854;28;20865;-59
2023/09/05 03:05:57;;;;;;;7.90;7.20;;;17.90;99.90;;;18.19;74.45;95095.00;5042089;28;20478;-65
2023/09/05 03:08:24;;;;;;;7.17;6.53;;;17.90;99.90;;;18.19;74.78;95104.81;5043805;28;20805;-65
2023/09/05 03:10:52;;;;;;;7.10;6.40;;;17.90;99.90;;;18.20;74.84;95106.47;5038402;28;20465;-65
2023/09/05 03:13:20;;;;;;;7.93;6.60;;;17.90;99.90;;;18.20;74.96;95117.97;5034944;28;20476;-67
2023/09/05 03:15:52;;;;;;;8.10;7.30;;;17.80;99.90;;;18.21;75.56;95114.28;5041327;28;20910;-66
2023/09/05 03:18:19;;;;;;;7.60;6.90;;;17.90;99.90;;;18.23;75.54;95114.94;5045395;28;20563;-61
2023/09/05 03:20:46;;;;;;;9.37;6.93;;;17.90;99.90;;;18.24;75.53;95110.44;5049530;28;20509;-66
2023/09/05 03:23:15;;;;;;;14.23;10.20;;;17.90;99.90;;;18.26;75.05;95117.25;5045305;28;20524;-59
2023/09/05 03:25:42;;;;;;;9.17;8.37;;;17.90;99.90;;;18.26;74.53;95117.25;5042230;28;20460;-59
2023/09/05 03:28:12;;;;;;;8.10;7.40;;;17.90;99.90;;;18.27;74.56;95123.38;5044137;28;20468;-59
2023/09/05 03:30:39;;;;;;;7.90;7.20;;;18.00;99.90;;;18.27;74.41;95129.53;5045585;28;21079;-67
2023/09/05 03:33:06;;;;;;;16.73;7.40;;;18.00;99.90;;;18.24;74.23;95132.53;5040623;28;20471;-65
2023/09/05 03:35:34;;;;;;;8.03;7.33;;;17.90;99.90;;;18.21;73.89;95135.56;5045642;28;20564;-66
2023/09/05 03:38:01;;;;;;;7.77;7.07;;;17.90;99.90;;;18.18;73.43;95130.59;5045136;28;20452;-60
2023/09/05 03:40:30;;;;;;;7.77;6.97;;;17.90;99.90;;;18.14;72.87;95150.63;5040052;28;20509;-61
2023/09/05 03:43:00;;;;;;;9.47;8.53;;;17.80;99.90;;;18.13;73.80;95133.00;5048584;28;20777;-60
2023/09/05 03:45:27;;;;;;;13.30;9.90;;;17.80;99.90;;;18.11;73.04;95140.34;5047304;28;20549;-66
2023/09/05 03:47:55;;;;;;;13.80;9.17;;;17.80;99.90;;;18.11;73.11;95153.66;5042898;28;20941;-65
2023/09/05 03:50:22;;;;;;;11.00;9.83;;;17.80;99.90;;;18.13;73.22;95154.28;5046512;28;20568;-59
2023/09/05 03:52:49;;;;;;;13.83;8.77;;;17.80;99.90;;;18.14;73.49;95149.78;5039219;28;20472;-65
2023/09/05 03:55:17;;;;;;;15.23;9.00;;;17.80;99.90;;;18.15;72.82;95136.28;5041967;28;20480;-65
2023/09/05 03:57:45;;;;;;;9.80;8.80;;;17.80;99.90;;;18.16;73.62;95148.59;5045184;28;20460;-60
2023/09/05 04:00:13;;;;;;;9.40;8.50;;;17.80;99.90;;;18.17;73.64;95134.28;5039168;28;20480;-65
2023/09/05 04:02:41;;;;;;;8.80;7.70;;;17.80;99.90;;;18.19;73.11;95140.25;5042397;28;20467;-65
2023/09/05 04:05:08;;;;;;;10.10;8.60;;;17.90;99.90;;;18.19;72.64;95134.94;5039964;28;20475;-59
2023/09/05 04:07:36;;;;;;;11.53;9.43;;;17.90;99.90;;;18.18;72.63;95125.28;5041933;28;20452;-66
2023/09/05 04:10:03;;;;;;;10.77;8.70;;;17.90;99.90;;;18.19;73.10;95126.13;5046708;28;20564;-59
2023/09/05 04:12:31;;;;;;;9.80;8.90;;;17.90;99.90;;;18.19;73.03;95126.94;5042856;28;20456;-64
2023/09/05 04:15:00;;;;;;;10.60;8.33;;;17.90;99.90;;;18.22;73.23;95126.59;5046773;28;20546;-65
2023/09/05 04:17:27;;;;;;;15.67;9.27;;;17.90;99.90;;;18.27;73.08;95124.19;5041176;28;20471;-65
2023/09/05 04:19:55;;;;;;;10.63;9.13;;;17.90;99.90;;;18.35;73.11;95125.94;5043798;28;20491;-65
2023/09/05 04:22:25;;;;;;;10.33;9.10;;;18.00;99.90;;;18.43;73.27;95133.88;5041987;28;20464;-62
2023/09/05 04:24:53;;;;;;;10.80;8.93;;;18.10;99.90;;;18.51;72.89;95143.59;5042263;28;21205;-61
2023/09/05 04:27:21;;;;;;;9.40;8.40;;;18.10;99.90;;;18.61;73.22;95144.16;5038852;28;20542;-62
2023/09/05 04:29:51;;;;;;;11.13;10.03;;;18.20;99.90;;;18.74;72.81;95148.84;5045313;28;20515;-61
2023/09/05 04:32:27;;;;;;;12.50;9.70;;;18.40;99.90;;;18.80;71.98;95139.31;5046589;28;20459;-60
2023/09/05 04:34:54;;;;;;;11.13;8.87;;;18.40;99.90;;;18.83;71.74;95144.25;5039385;28;20460;-61
2023/09/05 04:37:22;;;;;;;12.13;9.40;;;18.50;99.90;;;18.82;71.51;95147.94;5042874;28;20492;-61
2023/09/05 04:39:49;;;;;;;14.30;10.03;;;18.50;99.90;;;18.81;71.58;95146.28;5043337;28;20476;-70
2023/09/05 04:42:16;;;;;;;12.40;10.20;;;18.50;99.90;;;18.79;71.34;95156.28;5049161;28;20456;-60
2023/09/05 04:44:44;;;;;;;10.57;9.57;;;18.50;99.90;;;18.76;71.00;95149.50;5043606;28;20475;-71
2023/09/05 04:47:26;;;;;;;18.27;9.40;;;18.40;99.90;;;18.71;71.04;95151.88;5043697;28;20541;-62
2023/09/05 04:49:54;;;;;;;11.50;8.80;;;18.40;99.90;;;18.64;70.74;95151.78;5040981;28;21008;-71
2023/09/05 04:52:26;;;;;;;23.23;9.67;;;18.30;99.90;;;18.57;70.93;95153.53;5040921;28;20468;-61
2023/09/05 04:54:55;;;;;;;10.83;9.30;;;18.30;99.90;;;18.50;71.18;95149.94;5043475;28;20471;-64
2023/09/05 04:57:22;;;;;;;13.63;10.80;;;18.20;99.90;;;18.46;70.71;95156.63;5037385;28;20452;-65
2023/09/05 04:59:50;;;;;;;12.63;10.57;;;18.20;99.90;;;18.43;71.02;95143.69;5046875;28;20490;-64
2023/09/05 05:02:17;;;;;;;11.73;10.50;;;18.10;99.90;;;18.41;71.11;95143.88;5046294;28;20955;-61
2023/09/05 05:04:46;;;;;;;12.37;9.73;;;18.10;99.90;;;18.42;71.55;95147.38;5037564;28;20475;-61
2023/09/05 05:07:13;;;;;;;11.67;10.47;;;18.10;99.90;;;18.44;71.89;95151.50;5045848;28;20550;-60
2023/09/05 05:09:41;;;;;;;14.67;9.67;;;18.10;99.90;;;18.46;71.54;95153.97;5045253;28;20499;-61
2023/09/05 05:12:08;;;;;;;11.40;10.00;;;18.10;99.90;;;18.44;71.61;95156.00;5042769;28;20455;-61
2023/09/05 05:14:36;;;;;;;11.10;9.90;;;18.10;99.90;;;18.43;71.40;95157.00;5039915;28;20531;-66
2023/09/05 05:17:03;;;;;;;13.80;10.03;;;18.10;99.90;;;18.43;70.97;95165.84;5042532;28;20984;-68
2023/09/05 05:19:30;;;;;;;17.53;9.70;;;18.10;99.90;;;18.43;71.51;95168.50;5045370;28;20530;-60
2023/09/05 05:21:59;;;;;;;11.80;9.50;;;18.10;99.90;;;18.45;71.42;95170.97;5043560;28;20984;-65
2023/09/05 05:24:27;;;;;;;14.70;10.10;;;18.10;99.90;;;18.48;71.36;95175.09;5042074;28;20476;-61
2023/09/05 05:26:54;;;;;;;21.63;9.83;;;18.20;99.90;;;18.50;70.96;95175.75;5043693;28;20495;-68
2023/09/05 05:29:22;;;;;;;14.07;10.80;;;18.20;99.90;;;18.50;70.71;95181.91;5044328;28;20561;-60
2023/09/05 05:31:49;;;;;;;17.33;11.20;;;18.20;99.90;;;18.52;71.00;95169.22;5045395;28;20461;-67
2023/09/05 05:34:17;;;;;;;11.70;10.23;;;18.20;99.90;;;18.56;70.61;95164.38;5040621;28;20472;-68
2023/09/05 05:36:44;;;;;;;13.07;11.07;;;18.20;99.90;;;18.56;71.14;95170.53;5040488;28;20445;-66
2023/09/05 05:39:13;;;;;;;13.27;11.07;;;18.30;99.90;;;18.57;70.96;95166.84;5036128;28;20477;-61
2023/09/05 05:41:40;;;;;;;12.27;10.47;;;18.20;99.90;;;18.59;69.94;95164.84;5042929;28;20445;-62
2023/09/05 05:44:08;;;;;;;18.80;10.90;;;18.30;99.90;;;18.57;70.34;95168.69;5041664;28;20480;-66
2023/09/05 05:46:35;;;;;;;14.70;10.63;;;18.20;99.90;;;18.57;70.86;95182.00;5039987;28;20460;-62
2023/09/05 05:49:03;;;;;;;17.00;10.93;;;18.20;99.90;;;18.59;70.45;95174.66;5043461;28;21004;-65
2023/09/05 05:51:30;;;;;;;13.87;11.47;;;18.30;99.90;;;18.61;70.22;95175.31;5038525;28;21103;-62
2023/09/05 05:53:57;;;;;;;16.70;10.20;;;18.30;99.90;;;18.62;70.29;95169.81;5044241;28;20472;-66
2023/09/05 05:56:26;;;;;;;14.83;10.70;;;18.30;99.90;;;18.65;70.58;95168.59;5037696;28;20495;-62
2023/09/05 05:58:54;;;;;;;14.33;10.63;;;18.30;99.90;;;18.65;70.43;95160.59;5047936;28;20488;-62
2023/09/05 06:01:22;;;;;;;13.87;11.20;;;18.30;99.90;;;18.63;70.11;95170.63;5037732;28;20981;-70
2023/09/05 06:03:49;;;;;;;14.07;11.30;;;18.30;99.90;;;18.61;69.65;95177.97;5043594;28;20476;-60
2023/09/05 06:06:16;;;;;;;11.23;10.10;;;18.30;99.90;;;18.61;69.74;95184.13;5042331;28;20848;-62
2023/09/05 06:08:44;;;;;;;23.70;10.20;;;18.30;99.90;;;18.64;69.48;95188.28;5042571;28;20482;-73
2023/09/05 06:11:11;;;;;;;13.17;11.57;;;18.30;99.90;;;18.66;69.65;95182.75;5038356;28;20554;-60
2023/09/05 06:13:40;;;;;;;12.13;10.10;;;18.30;99.90;;;18.68;70.01;95178.06;5041488;28;20498;-62
2023/09/05 06:16:07;;;;;;;11.77;10.60;;;18.30;99.90;;;18.68;69.97;95168.22;5038197;28;22608;-61
2023/09/05 06:18:35;;;;;;;12.93;11.20;;;18.30;99.90;;;18.69;69.68;95169.91;5045607;28;20510;-61
2023/09/05 06:21:03;;;;;;;12.00;10.80;;;18.40;99.90;;;18.70;69.76;95157.38;5042598;28;20456;-60
2023/09/05 06:23:32;;;;;;;14.60;10.83;;;18.40;99.90;;;18.71;69.80;95161.72;5043914;28;20480;-71
2023/09/05 06:26:00;;;;;;;16.73;10.20;;;18.30;99.90;;;18.72;69.80;95155.38;5047302;28;20452;-62
2023/09/05 06:28:27;;;;;;;14.20;10.13;;;18.40;99.90;;;18.75;69.17;95169.16;5043263;28;20475;-72
2023/09/05 06:30:59;;;;;;;17.33;10.87;;;18.40;99.90;;;18.77;68.82;95161.00;5043473;28;20511;-61
2023/09/05 06:33:27;;;;;;;11.43;9.90;;;18.40;99.90;;;18.77;69.37;95174.31;5041986;28;20483;-60
2023/09/05 06:35:54;;;;;;;15.73;11.30;;;18.40;99.90;;;18.77;69.35;95171.66;5043277;28;20490;-74
2023/09/05 06:38:23;;;;;;;13.87;10.47;;;18.40;99.90;;;18.77;69.39;95172.47;5043611;28;21001;-74
2023/09/05 06:40:50;;;;;;;10.20;8.47;;;18.40;99.90;;;18.79;68.83;95177.59;5044471;28;20455;-74
2023/09/05 06:43:18;;;;;;;12.07;9.83;;;18.50;99.90;;;18.78;69.07;95174.13;5040030;28;20592;-73
2023/09/05 06:45:45;;;;;;;14.13;9.17;;;18.50;99.90;;;18.78;68.91;95192.78;5047171;28;20455;-62
2023/09/05 06:48:14;;;;;;;10.50;8.77;;;18.50;99.90;;;18.79;69.68;95180.28;5041709;28;20467;-62
2023/09/05 06:50:41;;;;;;;9.50;8.50;;;18.50;99.90;;;18.78;69.32;95190.13;5048069;28;20497;-75
2023/09/05 06:53:09;;;;;;;11.00;9.07;;;18.50;99.90;;;18.79;68.72;95180.28;5053129;28;20464;-73
2023/09/05 06:55:36;;;;;;;10.00;7.93;;;18.50;99.90;;;18.79;69.26;95188.28;5043995;28;20464;-61
2023/09/05 06:58:05;;;;;;;9.50;8.60;;;18.50;99.90;;;18.78;68.80;95176.78;5043075;28;20465;-75
2023/09/05 07:00:33;;;;;;;10.30;8.27;;;18.50;99.90;;;18.78;68.57;95171.47;5043676;28;21168;-74
2023/09/05 07:03:01;;;;;;;11.90;7.87;;;18.50;99.90;;;18.80;68.77;95176.59;5052486;28;20451;-77
2023/09/05 07:05:29;;;;;;;11.23;8.37;;;18.50;99.90;;;18.82;68.29;95182.56;5045163;28;20495;-76
2023/09/05 07:07:57;;;;;;;11.77;7.97;;;18.50;99.90;;;18.84;68.44;95183.25;5049294;28;20451;-62
2023/09/05 07:10:24;;;;;;;9.30;8.40;;;18.50;99.90;;;18.84;68.26;95179.72;5046375;28;20494;-62
2023/09/05 07:12:52;;;;;;;10.13;9.03;;;18.50;99.90;;;18.85;68.59;95184.91;5045729;28;20461;-63
2023/09/05 07:15:19;;;;;;;12.17;8.23;;;18.50;99.90;;;18.86;68.88;95194.56;5051540;28;20858;-64
2023/09/05 07:17:46;;;;;;;10.83;9.47;;;18.60;99.90;;;18.92;68.86;95209.00;5044955;28;20539;-62
2023/09/05 07:20:14;;;;;;;12.60;7.97;;;18.60;99.90;;;18.95;67.94;95201.47;5048134;28;20488;-62
2023/09/05 07:22:43;;;;;;;9.13;8.20;;;18.60;99.90;;;19.02;68.27;95206.06;5054127;28;20464;-62
2023/09/05 07:25:10;;;;;;;9.83;8.57;;;18.70;99.90;;;19.07;68.04;95207.19;5050384;28;20546;-60
2023/09/05 07:27:38;;;;;;;13.23;8.67;;;18.70;99.90;;;19.08;67.61;95208.00;5047604;28;20464;-64
2023/09/05 07:30:07;;;;;;;12.27;7.97;;;18.80;99.90;;;19.11;68.47;95213.78;5050817;28;20488;-72
2023/09/05 07:32:34;;;;;;;10.10;8.53;;;18.80;99.90;;;19.16;68.10;95207.88;5048526;28;20717;-73
2023/09/05 07:35:03;;;;;;;7.87;7.07;;;18.80;99.90;;;19.20;67.79;95222.50;5043039;28;20476;-63
2023/09/05 07:37:30;;;;;;;14.40;7.73;;;18.90;99.90;;;19.24;67.72;95220.28;5046714;28;20452;-73
2023/09/05 07:39:59;;;;;;;17.70;8.93;;;18.90;99.90;;;19.24;67.49;95230.97;5051037;28;21025;-62
2023/09/05 07:42:27;;;;;;;8.43;6.77;;;18.90;99.90;;;19.21;67.26;95234.84;5047013;28;20458;-71
2023/09/05 07:44:54;;;;;;;9.90;7.90;;;18.90;99.90;;;19.16;67.32;95239.88;5051155;28;20855;-71
2023/09/05 07:47:22;;;;;;;14.77;9.10;;;18.80;99.90;;;19.12;68.06;95238.63;5046099;28;20472;-63
2023/09/05 07:49:49;;;;;;;9.60;8.70;;;18.80;99.90;;;19.11;68.25;95247.63;5043645;28;20572;-70
2023/09/05 07:52:16;;;;;;;10.80;9.57;;;18.80;99.90;;;19.09;67.87;95242.47;5048339;28;20458;-63
2023/09/05 07:54:44;;;;;;;12.53;8.43;;;18.80;99.90;;;19.06;67.98;95242.84;5048952;28;20475;-73
2023/09/05 07:57:13;;;;;;;12.60;8.57;;;18.80;99.90;;;19.04;68.27;95244.03;5047148;28;20455;-75
2023/09/05 07:59:40;;;;;;;12.00;8.43;;;18.70;99.90;;;19.04;68.31;95252.00;5048326;28;21266;-76
2023/09/05 08:02:10;;;;;;;13.87;8.90;;;18.70;99.90;;;19.06;68.12;95247.34;5040592;28;20487;-61
2023/09/05 08:04:38;;;;;;;8.83;7.70;;;18.70;99.90;;;19.10;68.58;95251.28;5038918;28;20483;-75
2023/09/05 08:07:06;;;;;;;9.20;8.20;;;18.80;99.90;;;19.11;68.11;95253.78;5045083;28;20468;-61
2023/09/05 08:09:33;;;;;;;20.87;8.37;;;18.80;99.90;;;19.16;67.75;95235.41;5042860;28;20499;-78
2023/09/05 08:12:02;;;;;;;10.83;8.03;;;18.80;99.90;;;19.25;68.52;95232.63;5041755;28;20483;-62
2023/09/05 08:14:31;;;;;;;10.13;8.27;;;18.90;99.90;;;19.33;67.97;95230.69;5043852;28;20478;-78
2023/09/05 08:16:58;;;;;;;7.90;7.13;;;19.00;99.90;;;19.48;67.56;95225.34;5045434;28;20459;-61
2023/09/05 08:19:26;;;;;;;9.63;7.53;;;19.10;99.90;;;19.64;67.05;95226.13;5047314;28;20964;-62
2023/09/05 08:21:53;;;;;;;9.63;8.67;;;19.30;99.90;;;19.81;nan;95232.94;5040872;28;20986;-63
2023/09/05 08:24:20;;;;;;;7.70;6.97;;;19.50;99.90;;;19.93;66.27;95225.25;5041174;28;20473;-64
2023/09/05 08:26:48;;;;;;;10.27;8.27;;;19.60;99.90;;;20.02;66.06;95237.47;5041970;28;20453;-62
2023/09/05 08:29:15;;;;;;;7.83;7.17;;;19.60;99.90;;;20.12;65.89;95244.34;5042759;28;20475;-63
2023/09/05 08:31:45;;;;;;;13.27;7.93;;;19.80;99.90;;;20.20;65.51;95244.22;5041911;28;20499;-63
2023/09/05 08:34:12;;;;;;;25.77;8.13;;;19.80;99.90;;;20.29;64.68;95255.63;5038623;28;20481;-79
2023/09/05 08:36:40;;;;;;;9.17;7.03;;;19.90;99.90;;;20.37;65.16;95258.16;5045444;28;20459;-77
2023/09/05 08:39:08;;;;;;;11.60;8.00;;;20.00;99.90;;;20.54;64.58;95254.22;5042612;28;20903;-79
2023/09/05 08:41:35;;;;;;;14.00;8.53;;;20.20;99.90;;;20.72;62.69;95245.75;5041659;28;20867;-61
2023/09/05 08:44:04;;;;;;;8.27;7.47;;;20.30;99.90;;;20.83;63.28;95251.59;5046375;28;20590;-61
2023/09/05 08:46:31;;;;;;;14.63;7.20;;;20.50;99.90;;;20.89;63.24;95259.66;5041927;28;20511;-77
2023/09/05 08:49:00;;;;;;;33.17;8.47;;;20.50;99.90;;;20.89;62.34;95256.97;5044457;28;20472;-61
2023/09/05 08:51:32;;;;;;;9.60;7.13;;;20.60;99.90;;;20.93;62.79;95246.75;5041714;28;20488;-80
2023/09/05 08:54:01;;;;;;;11.63;6.47;;;20.60;99.90;;;20.99;62.57;95250.47;5041795;28;21004;-63
2023/09/05 08:56:28;;;;;;;9.60;6.77;;;20.70;99.90;;;21.06;62.34;95257.50;5040803;28;20451;-63
2023/09/05 08:58:56;;;;;;;10.43;7.10;;;20.70;99.90;;;21.14;61.59;95254.66;5046621;28;20469;-77
2023/09/05 09:01:24;;;;;;;9.53;6.33;;;20.80;99.90;;;21.22;61.63;95264.38;5041897;28;20501;-62
2023/09/05 09:03:52;;;;;;;11.37;6.10;;;20.80;99.90;;;21.33;61.31;95260.34;5041693;28;20488;-78
2023/09/05 09:06:24;;;;;;;12.37;5.70;;;21.00;99.90;;;21.47;61.13;95263.91;5040555;28;20449;-64
2023/09/05 09:08:51;;;;;;;6.03;5.50;;;21.10;99.90;;;21.63;60.57;95265.50;5040892;28;20841;-78
2023/09/05 09:11:20;;;;;;;5.97;5.47;;;21.20;99.90;;;21.73;58.80;95257.06;5043623;28;20579;-78
2023/09/05 09:13:49;;;;;;;7.30;5.70;;;21.30;98.30;;;21.80;59.16;95266.78;5047665;28;20479;-63
2023/09/05 09:16:18;;;;;;;6.97;6.23;;;21.40;98.30;;;21.94;58.39;95256.94;5049610;28;21015;-62
2023/09/05 09:18:48;;;;;;;5.17;4.77;;;21.50;98.00;;;22.22;57.70;95249.81;5041306;28;20503;-62
2023/09/05 09:21:18;;;;;;;6.17;5.67;;;21.80;98.00;;;22.56;58.11;95263.09;5041085;28;20460;-64
2023/09/05 09:23:46;;;;;;;6.57;4.23;;;22.10;98.30;;;22.87;57.81;95261.66;5040560;28;20460;-74
2023/09/05 09:26:14;;;;;;;11.33;5.47;;;22.30;97.70;;;23.08;53.67;95251.72;5039405;28;20527;-75
2023/09/05 09:28:42;;;;;;;7.87;6.63;;;22.60;94.00;;;23.23;55.23;95256.91;5045727;28;20479;-63
2023/09/05 09:31:12;;;;;;;10.77;5.70;;;22.80;95.00;;;23.36;53.04;95253.34;5040745;28;20495;-79
2023/09/05 09:33:40;;;;;;;10.90;6.47;;;22.90;93.50;;;23.43;54.26;95267.59;5042737;28;20476;-64
2023/09/05 09:36:09;;;;;;;22.27;5.93;;;23.00;94.00;;;23.55;52.75;95254.34;5040678;28;20448;-75
2023/09/05 09:38:36;;;;;;;7.13;5.20;;;23.10;93.30;;;23.73;54.31;95267.09;5038551;28;21068;-62
2023/09/05 09:41:06;;;;;;;5.70;5.20;;;23.20;94.20;;;23.93;54.17;95267.03;5040499;28;20450;-63
2023/09/05 09:43:35;;;;;;;10.80;5.77;;;23.50;93.70;;;24.06;53.71;95255.41;5039531;28;20478;-62
2023/09/05 09:46:04;;;;;;;7.20;5.37;;;23.60;93.30;;;24.10;51.03;95246.69;5041042;28;20452;-64
2023/09/05 09:48:33;;;;;;;8.80;5.30;;;23.70;90.70;;;24.12;50.40;95244.63;5038970;28;20484;-63
2023/09/05 09:51:01;;;;;;;6.67;5.70;;;23.70;90.50;;;24.16;51.80;95251.19;5039347;28;20495;-62
2023/09/05 09:53:34;;;;;;;5.33;4.67;;;23.80;91.30;;;24.24;52.56;95241.25;5042534;28;20476;-62
2023/09/05 09:56:08;;;;;;;9.73;4.60;;;23.80;92.00;;;24.34;52.34;95231.66;5042541;28;20455;-75
2023/09/05 09:58:35;;;;;;;10.63;5.60;;;23.90;91.60;;;24.46;51.50;95239.03;5038442;28;20635;-76
2023/09/05 10:01:03;;;;;;;6.57;5.17;;;24.00;91.00;;;24.59;51.75;95249.72;5042427;28;20447;-62
2023/09/05 10:03:31;;;;;;;5.30;4.73;;;24.10;90.50;;;24.74;50.85;95240.50;5037916;28;20484;-62
2023/09/05 10:06:00;;;;;;;7.40;5.50;;;24.30;90.30;;;24.88;50.82;95242.06;5041242;28;20532;-62
2023/09/05 10:08:28;;;;;;;7.07;5.43;;;24.40;89.40;;;24.97;49.72;95246.13;5041471;28;20991;-62
2023/09/05 10:10:56;;;;;;;11.77;4.70;;;24.50;86.00;;;25.02;48.25;95232.81;5044619;28;20491;-73
2023/09/05 10:13:27;;;;;;;6.47;5.00;;;24.60;84.10;;;25.07;49.48;95242.91;5042667;28;20491;-75
2023/09/05 10:15:55;;;;;;;12.13;5.10;;;24.70;85.70;;;25.13;48.78;95243.88;5042584;28;20988;-63
2023/09/05 10:18:22;;;;;;;10.00;4.13;;;24.70;83.70;;;25.09;46.27;95226.56;5039466;28;20519;-63